Green, KS (67447)

6:35 PM CDT on July 28, 2014 (GMT -0500)
Clay County Medical Center (KKSCLAYC2) Elev 1274 ft | 39.39 °N, 97.12 °W | Change Station

Current weather conditions updated 4 seconds ago

Clear
Clear
82.5 °F
Feels Like 82 °F
N
4.0
Wind Variable Wind from NNW
Gusts 8.0 mph

Tomorrow is forecast to be nearly the same temperature as today.

Today
High -- | Low -- °F
--% Chance of Precip.
Yesterday
High -- | Low -- °F
Precip. -- in
6:24 AM 8:44 PM
Waxing Crescent, 4% visible
Pressure 30.15 in
Visibility 10.0 miles
Clouds Clear
Heat Index 82 °F
Dew Point 56 °F
Humidity 41%
Rainfall 0.00 in
Snow Depth Not available.
UV 3 out of 12
Pollen 6.90 out of 12
Air Quality Not available.
Flu Activity Not available.
METAR KMHK 282252Z AUTO 04009KT 10SM CLR 29/12 A3017 RMK AO2 SLP209 T02890122

More Conditions Fewer Conditions

Pressure 30.15 in
Visibility 10.0 miles
Clouds Clear
Heat Index 82 °F
Dew Point 56 °F
Humidity 41%
Rainfall 0.00 in
Snow Depth Not available.
UV 3 out of 12
Pollen 6.90 out of 12
Air Quality Not available.
Flu Activity Not available.
METAR KMHK 282252Z AUTO 04009KT 10SM CLR 29/12 A3017 RMK AO2 SLP209 T02890122

More Conditions Fewer Conditions

10-Day Weather Forecast

Almanac

Astronomy

Jul. 28, 2014 Rise Set
Actual Time 6:24 AM CDT 8:44 PM CDT
Civil Twilight 5:53 AM CDT 9:14 PM CDT
Nautical Twilight 5:16 AM CDT 9:51 PM CDT
Astronomical Twilight 4:35 AM CDT 10:32 PM CDT
Moon 8:06 AM CDT 9:27 PM CDT
Length of Visible Light 15h 20m
Length of Day
14h 20m
Tomorrow will be 1m 50s shorter.
Waxing Crescent, 4% of the Moon is Illuminated
Today
Waxing Crescent
Aug 3
First Quarter
Aug 10
Full
Aug 17
Last Quarter
Aug 25
New

Today's Extremes

State Highs State Lows

Community

WunderPhotos

Upload Photos

1,738,549 photos uploaded!

Nearby

Snow Depth

Station Depth Elevation
No new snow has been reported.

Earthquake Activity

City Distance Mag. Time & Date
No recent earthquake activity has been reported nearby.
Minimum magnitude displayed is 2.5.

Coastal Water Temperatures

Place Temperature
No Stations Reporting

Nearby Weather Stations

Station Location Temp. Heat Index Dew Point Humidity Wind Precip. Elev Updated Type
Clay County Medical Center, Clay Center, KS 82.5 °F 82 °F 56 °F 41% NNW  at  4.0 mph 0.00 in / hr 1274 ft 6:35 PM CDT Rapid Fire
Wakefield, KS 82.0 °F 82 °F 57 °F 43% North  at  0.0 mph 0.00 in / hr 1272 ft 6:35 PM CDT Rapid Fire
SW of Idana, Clay Center, KS 83.3 °F 83 °F 58 °F 43% NNW  at  3.0 mph 0.00 in / hr 1298 ft 6:32 PM CDT Normal
Wildcat Valley, Manhattan, KS 83.9 °F 84 °F 58 °F 42% NE  at  2.0 mph 0.00 in / hr 1160 ft 6:35 PM CDT Normal

Show More Stations Show Fewer Stations